Time;durP1;ratioP1;P1;durP2;ratioP2;P2;SDS_P1;SDS_P2;PMS_P1;PMS_P2;Temp;Humidity;BMP_temperature;BMP_pressure;BME280_temperature;BME280_humidity;BME280_pressure;Samples;Min_cycle;Max_cycle;Signal;HPM_P1;HPM_P2
2021/07/03 00:02:05;;;;;;;3.70;3.03;;;13.30;99.90;12.70;96885.00;;;;5106415;28;20215;-62
2021/07/03 00:04:55;;;;;;;4.03;2.93;;;13.30;99.90;12.80;96879.00;;;;5106061;28;20207;-63
2021/07/03 00:07:44;;;;;;;3.67;2.93;;;13.30;99.90;12.80;96878.00;;;;5106340;28;20229;-62
2021/07/03 00:10:33;;;;;;;3.40;3.07;;;13.30;99.90;12.80;96881.00;;;;5099994;28;20594;-62
2021/07/03 00:13:22;;;;;;;7.77;3.27;;;13.30;99.90;12.70;96878.00;;;;5100727;28;20210;-63
2021/07/03 00:16:11;;;;;;;5.13;3.27;;;13.30;99.90;12.50;96875.00;;;;5105885;28;20203;-63
2021/07/03 00:19:00;;;;;;;2.63;2.27;;;13.20;99.90;12.60;96883.00;;;;5093371;28;20214;-63
2021/07/03 00:21:50;;;;;;;5.00;3.53;;;13.10;99.90;12.70;96889.00;;;;5105414;28;20233;-62
2021/07/03 00:24:39;;;;;;;3.10;2.80;;;13.10;99.90;12.80;96895.00;;;;5106002;28;20191;-63
2021/07/03 00:27:28;;;;;;;3.33;2.60;;;13.10;99.90;12.90;96896.00;;;;5105529;28;20237;-62
2021/07/03 00:30:17;;;;;;;2.47;2.27;;;13.20;99.90;13.00;96900.00;;;;5104477;28;20213;-62
2021/07/03 00:33:06;;;;;;;3.60;2.93;;;13.30;99.90;13.10;96902.00;;;;5105375;28;20218;-62
2021/07/03 00:35:56;;;;;;;3.43;3.13;;;13.30;99.90;13.10;96901.00;;;;5106727;28;20609;-62
2021/07/03 00:38:46;;;;;;;3.70;2.93;;;13.40;99.90;13.00;96894.00;;;;5105751;28;20213;-62
2021/07/03 00:41:35;;;;;;;3.47;3.00;;;13.40;99.90;13.10;96895.00;;;;5105537;28;20222;-63
2021/07/03 00:44:29;;;;;;;5.07;3.50;;;13.50;99.90;13.20;96890.00;;;;5104975;28;20206;-61
2021/07/03 00:47:18;;;;;;;3.43;2.83;;;13.50;99.90;13.30;96899.00;;;;5106108;28;20210;-62
2021/07/03 00:50:10;;;;;;;2.77;2.57;;;13.60;99.90;13.40;96898.00;;;;5093558;28;20199;-63
2021/07/03 00:52:59;;;;;;;5.07;2.60;;;13.60;99.90;13.30;96894.00;;;;5106018;28;20233;-62
2021/07/03 00:55:50;;;;;;;3.83;2.90;;;13.70;99.90;13.30;96890.00;;;;5105880;28;20611;-62
2021/07/03 00:58:39;;;;;;;3.30;2.97;;;13.60;99.90;13.40;96888.00;;;;5105411;28;20556;-62
2021/07/03 01:01:28;;;;;;;3.20;2.87;;;13.70;99.90;13.40;96883.00;;;;5092699;28;20596;-61
2021/07/03 01:04:17;;;;;;;3.47;3.10;;;13.70;99.90;13.10;96888.00;;;;5105180;28;20218;-63
2021/07/03 01:07:07;;;;;;;2.73;2.47;;;13.70;99.90;13.00;96889.00;;;;5104785;28;20213;-59
2021/07/03 01:09:56;;;;;;;4.33;3.10;;;13.60;99.90;12.90;96887.00;;;;5105741;28;20575;-62
2021/07/03 01:12:47;;;;;;;3.60;3.03;;;13.50;99.90;13.00;96889.00;;;;5096153;28;20229;-61
2021/07/03 01:15:36;;;;;;;7.70;3.20;;;13.50;99.90;12.90;96883.00;;;;5105826;28;20202;-60
2021/07/03 01:18:25;;;;;;;3.37;3.07;;;13.50;99.90;13.00;96894.00;;;;5105740;28;20572;-61
2021/07/03 01:21:16;;;;;;;3.23;2.80;;;13.40;99.90;13.10;96897.00;;;;5064009;28;20216;-61
2021/07/03 01:24:07;;;;;;;3.90;2.60;;;13.50;99.90;12.90;96889.00;;;;5065811;28;20675;-61
2021/07/03 01:26:56;;;;;;;3.70;3.10;;;13.40;99.90;12.60;96880.00;;;;5061120;28;20593;-62
2021/07/03 01:29:45;;;;;;;4.60;3.03;;;13.30;99.90;12.70;96881.00;;;;5064410;28;20682;-63
2021/07/03 01:32:35;;;;;;;3.80;2.70;;;13.30;99.90;12.90;96881.00;;;;5065668;28;20638;-61
2021/07/03 01:35:29;;;;;;;4.77;3.47;;;13.30;99.90;13.10;96886.00;;;;5054951;28;20204;-63
2021/07/03 01:38:20;;;;;;;6.53;3.37;;;13.30;99.90;13.30;96894.00;;;;5069260;28;20214;-63
2021/07/03 01:41:10;;;;;;;3.93;3.20;;;13.40;99.90;13.40;96877.00;;;;5065324;28;20209;-60
2021/07/03 01:43:59;;;;;;;4.20;3.17;;;13.50;99.90;13.40;96881.00;;;;5062824;28;20212;-62
2021/07/03 01:46:47;;;;;;;4.57;2.97;;;13.60;99.90;13.40;96880.00;;;;5065987;28;20214;-61
2021/07/03 01:49:39;;;;;;;5.00;3.10;;;13.70;99.90;13.30;96883.00;;;;5071711;28;20659;-63
2021/07/03 01:52:28;;;;;;;2.70;2.50;;;13.70;99.90;13.20;96887.00;;;;5067894;28;20596;-63
2021/07/03 01:55:17;;;;;;;3.40;3.10;;;13.70;99.90;13.20;96885.00;;;;5068306;28;20207;-63
2021/07/03 01:58:07;;;;;;;3.90;3.23;;;13.70;99.90;13.30;96886.00;;;;5058720;28;20598;-63
2021/07/03 02:00:58;;;;;;;2.97;2.73;;;13.60;99.90;13.30;96887.00;;;;5068262;28;20215;-64
2021/07/03 02:03:47;;;;;;;3.20;2.73;;;13.60;99.90;13.40;96884.00;;;;5069111;28;20683;-62
2021/07/03 02:06:36;;;;;;;2.53;2.33;;;13.70;99.90;13.40;96883.00;;;;5068665;28;20200;-63
2021/07/03 02:09:26;;;;;;;2.80;2.60;;;13.70;99.90;13.40;96880.00;;;;5058766;28;20211;-62
2021/07/03 02:12:15;;;;;;;5.87;2.87;;;13.70;99.90;13.40;96866.00;;;;5053377;28;20227;-63
2021/07/03 02:15:07;;;;;;;3.13;2.83;;;13.70;99.90;13.40;96873.00;;;;5068794;28;20203;-61
2021/07/03 02:17:56;;;;;;;3.57;2.97;;;13.80;99.90;13.50;96879.00;;;;5068278;28;20196;-60
2021/07/03 02:20:45;;;;;;;4.00;2.47;;;13.80;99.90;13.50;96885.00;;;;5085495;28;20716;-62
2021/07/03 02:23:34;;;;;;;4.17;3.20;;;13.80;99.90;13.40;96878.00;;;;5106026;28;20221;-61
2021/07/03 02:26:23;;;;;;;3.20;2.87;;;13.80;99.90;13.50;96886.00;;;;5109061;28;20568;-62
2021/07/03 02:29:12;;;;;;;2.93;2.50;;;13.80;99.90;13.50;96886.00;;;;5108550;28;20483;-61
2021/07/03 02:32:03;;;;;;;3.33;2.53;;;13.80;99.90;13.40;96891.00;;;;5108130;28;20235;-62
2021/07/03 02:34:52;;;;;;;4.10;3.13;;;13.80;99.90;13.40;96879.00;;;;5107993;28;20206;-62
2021/07/03 02:37:41;;;;;;;3.00;2.37;;;13.80;99.90;13.40;96875.00;;;;5108067;28;20202;-62
2021/07/03 02:40:30;;;;;;;4.63;2.93;;;13.80;99.90;13.30;96875.00;;;;5108066;28;20198;-63
2021/07/03 02:43:19;;;;;;;3.63;2.60;;;13.80;99.90;13.20;96869.00;;;;5095808;28;20218;-63
2021/07/03 02:46:07;;;;;;;3.83;2.80;;;13.70;99.90;13.30;96871.00;;;;5107205;28;20579;-63
2021/07/03 02:48:58;;;;;;;7.40;3.53;;;13.70;99.90;13.30;96865.00;;;;5108600;28;20210;-63
2021/07/03 02:51:47;;;;;;;3.13;2.80;;;13.70;99.90;13.40;96875.00;;;;5096658;28;20223;-62
2021/07/03 02:54:35;;;;;;;3.53;3.23;;;13.70;99.90;13.30;96867.00;;;;5107442;28;20207;-63
2021/07/03 02:57:24;;;;;;;3.00;2.67;;;13.70;99.90;13.40;96867.00;;;;5106705;28;20201;-63
2021/07/03 03:00:16;;;;;;;3.23;2.93;;;13.70;99.90;13.30;96858.00;;;;5107085;28;20245;-61
2021/07/03 03:03:05;;;;;;;3.77;3.20;;;13.70;99.90;13.30;96860.00;;;;5107315;28;20214;-62
2021/07/03 03:05:56;;;;;;;3.13;2.83;;;13.70;99.90;13.00;96856.00;;;;5107276;28;20209;-63
2021/07/03 03:08:45;;;;;;;3.90;2.97;;;13.60;99.90;13.00;96856.00;;;;5107236;28;20208;-62
2021/07/03 03:11:34;;;;;;;3.03;2.60;;;13.60;99.90;12.90;96850.00;;;;5093210;28;20231;-61
2021/07/03 03:14:24;;;;;;;5.00;3.60;;;13.50;99.90;12.90;96855.00;;;;5097590;28;20230;-62
2021/07/03 03:17:12;;;;;;;3.90;2.70;;;13.40;99.90;13.10;96863.00;;;;5106504;28;20206;-64
2021/07/03 03:20:02;;;;;;;3.60;3.13;;;13.40;99.90;13.00;96864.00;;;;5106094;28;20578;-61
2021/07/03 03:22:52;;;;;;;3.47;2.97;;;13.50;99.90;12.60;96856.00;;;;5107082;28;20237;-63
2021/07/03 03:25:41;;;;;;;3.27;2.90;;;13.40;99.90;12.50;96856.00;;;;5106403;28;20199;-63
2021/07/03 03:28:30;;;;;;;5.53;3.40;;;13.30;99.90;12.70;96855.00;;;;5105994;28;20210;-63
2021/07/03 03:31:19;;;;;;;4.10;3.20;;;13.20;99.90;12.90;96861.00;;;;5106439;28;20230;-62
2021/07/03 03:34:08;;;;;;;3.30;3.00;;;13.20;99.90;13.00;96861.00;;;;5106401;28;20237;-63
2021/07/03 03:36:56;;;;;;;4.10;2.73;;;13.30;99.90;13.00;96857.00;;;;5106797;28;20751;-62
2021/07/03 03:39:47;;;;;;;3.30;2.73;;;13.30;99.90;13.00;96879.00;;;;5106147;28;20690;-63
2021/07/03 03:42:36;;;;;;;3.27;2.97;;;13.40;99.90;13.00;96867.00;;;;5107406;28;20226;-63
2021/07/03 03:45:25;;;;;;;5.27;3.67;;;13.40;99.90;13.00;96871.00;;;;5105157;28;20252;-62
2021/07/03 03:48:14;;;;;;;5.27;3.13;;;13.40;99.90;13.10;96867.00;;;;5105183;28;20213;-62
2021/07/03 03:51:03;;;;;;;5.37;3.33;;;13.40;99.90;13.20;96864.00;;;;5107424;28;20232;-62
2021/07/03 03:53:52;;;;;;;3.60;3.20;;;13.50;99.90;12.80;96859.00;;;;5105673;28;20218;-63
2021/07/03 03:56:42;;;;;;;3.63;2.90;;;13.50;99.90;13.00;96861.00;;;;5106663;28;20678;-63
2021/07/03 03:59:31;;;;;;;3.30;3.00;;;13.40;99.90;13.10;96860.00;;;;5104771;28;20202;-62
2021/07/03 04:02:20;;;;;;;4.53;4.13;;;13.50;99.90;13.20;96856.00;;;;5105434;28;20230;-63
2021/07/03 04:05:10;;;;;;;3.30;3.00;;;13.50;99.90;13.20;96874.00;;;;5106102;28;20199;-61
2021/07/03 04:07:59;;;;;;;6.37;3.90;;;13.60;99.90;13.20;96874.00;;;;5105126;28;20719;-63
2021/07/03 04:10:48;;;;;;;3.37;2.70;;;13.60;99.90;13.20;96872.00;;;;5103059;28;20670;-63
2021/07/03 04:13:39;;;;;;;4.53;2.80;;;13.60;99.90;13.20;96872.00;;;;5103157;28;20220;-62
2021/07/03 04:16:27;;;;;;;4.47;2.63;;;13.60;99.90;13.40;96876.00;;;;5106400;28;20259;-62
2021/07/03 04:19:16;;;;;;;2.77;2.57;;;13.70;99.90;13.30;96874.00;;;;5097977;28;20718;-62
2021/07/03 04:22:05;;;;;;;7.50;2.97;;;13.70;99.90;13.40;96884.00;;;;5104630;28;20226;-61
2021/07/03 04:24:54;;;;;;;2.87;2.67;;;13.80;99.90;13.40;96882.00;;;;5101305;28;20203;-60
2021/07/03 04:27:44;;;;;;;4.33;3.20;;;13.80;99.90;13.20;96873.00;;;;5099264;28;20206;-63
2021/07/03 04:30:34;;;;;;;4.60;3.40;;;13.70;99.90;13.30;96878.00;;;;5094034;28;20206;-63
2021/07/03 04:33:23;;;;;;;4.50;3.13;;;13.70;99.90;13.30;96879.00;;;;5100021;28;20223;-63
2021/07/03 04:36:12;;;;;;;3.90;2.83;;;13.70;99.90;13.40;96882.00;;;;5105257;28;20585;-61
2021/07/03 04:39:01;;;;;;;4.80;3.53;;;13.80;99.90;13.50;96875.00;;;;5105414;28;20202;-61
2021/07/03 04:41:49;;;;;;;3.13;2.70;;;13.80;99.90;13.60;96874.00;;;;5106067;28;20596;-61
2021/07/03 04:44:38;;;;;;;3.80;3.40;;;13.90;99.90;13.80;96876.00;;;;5106234;28;20194;-63
2021/07/03 04:47:28;;;;;;;4.13;3.73;;;14.00;99.90;13.90;96868.00;;;;5104374;28;20207;-63
2021/07/03 04:50:17;;;;;;;3.70;3.33;;;14.00;99.90;14.00;96874.00;;;;5103870;28;20225;-62
2021/07/03 04:53:06;;;;;;;3.87;3.37;;;14.20;99.90;14.10;96873.00;;;;5093215;28;20610;-60
2021/07/03 04:55:55;;;;;;;3.97;3.30;;;14.30;99.90;14.10;96876.00;;;;5103428;28;20203;-61
2021/07/03 04:58:44;;;;;;;5.80;3.33;;;14.40;99.90;14.10;96873.00;;;;5105130;28;20214;-62
2021/07/03 05:01:34;;;;;;;3.67;3.33;;;14.40;99.90;14.20;96871.00;;;;5104733;28;20222;-62
2021/07/03 05:04:24;;;;;;;3.97;3.57;;;14.50;99.90;14.30;96873.00;;;;5092710;28;20202;-61
2021/07/03 05:07:13;;;;;;;4.67;3.80;;;14.50;99.90;14.30;96873.00;;;;5105373;28;20199;-63
2021/07/03 05:10:02;;;;;;;3.50;3.20;;;14.60;99.90;14.40;96877.00;;;;5102196;28;20198;-62
2021/07/03 05:12:52;;;;;;;3.97;3.13;;;14.70;99.90;14.60;96867.00;;;;5108276;28;20233;-62
2021/07/03 05:15:41;;;;;;;4.03;3.17;;;14.80;99.90;14.90;96870.00;;;;5095823;28;20279;-61
2021/07/03 05:18:30;;;;;;;4.83;2.80;;;14.90;99.90;15.00;96871.00;;;;5092993;28;20204;-61
2021/07/03 05:21:20;;;;;;;4.83;3.47;;;15.00;99.90;14.90;96867.00;;;;5104409;28;20222;-62
2021/07/03 05:24:09;;;;;;;3.70;2.83;;;15.10;99.90;14.90;96869.00;;;;5106338;28;20198;-61
2021/07/03 05:26:58;;;;;;;6.83;3.70;;;15.20;99.90;15.00;96875.00;;;;5109092;28;20202;-61
2021/07/03 05:29:47;;;;;;;3.97;2.80;;;15.30;99.90;15.10;96872.00;;;;5104205;28;20207;-64
2021/07/03 05:32:36;;;;;;;4.27;3.60;;;15.30;99.90;15.40;96867.00;;;;5101497;28;20226;-61
2021/07/03 05:35:25;;;;;;;3.97;2.97;;;15.50;99.90;15.50;96870.00;;;;5098196;28;20705;-63
2021/07/03 05:38:15;;;;;;;4.67;3.17;;;15.60;99.90;15.60;96867.00;;;;5108627;28;20218;-63
2021/07/03 05:41:04;;;;;;;5.00;3.63;;;15.70;99.90;15.80;96876.00;;;;5108714;28;20205;-61
2021/07/03 05:43:54;;;;;;;4.47;3.97;;;15.90;99.90;15.90;96871.00;;;;5108825;28;20208;-61
2021/07/03 05:46:43;;;;;;;2.60;2.40;;;16.00;99.90;16.10;96868.00;;;;5108619;28;20225;-60
2021/07/03 05:49:32;;;;;;;3.37;2.77;;;16.10;99.90;16.40;96877.00;;;;5105977;28;20602;-60
2021/07/03 05:52:20;;;;;;;3.53;3.07;;;16.30;99.90;16.70;96882.00;;;;5106843;28;20618;-61
2021/07/03 05:55:12;;;;;;;4.50;4.10;;;16.50;99.90;16.70;96881.00;;;;5105428;28;20226;-60
2021/07/03 05:58:01;;;;;;;3.93;3.30;;;16.70;99.90;17.00;96875.00;;;;5106136;28;20595;-60
2021/07/03 06:00:50;;;;;;;3.93;3.60;;;16.80;99.90;17.10;96878.00;;;;5105113;28;20611;-63
2021/07/03 06:03:39;;;;;;;4.40;3.33;;;17.10;99.90;17.30;96867.00;;;;5105373;28;20208;-62
2021/07/03 06:06:28;;;;;;;5.20;3.07;;;17.30;99.90;17.30;96874.00;;;;5105817;28;20194;-62
2021/07/03 06:09:17;;;;;;;3.03;2.80;;;17.40;99.90;17.70;96863.00;;;;5108348;28;20211;-62
2021/07/03 06:12:08;;;;;;;4.47;3.40;;;17.60;99.90;18.00;96867.00;;;;5095112;28;20230;-62
2021/07/03 06:14:56;;;;;;;3.87;3.27;;;17.80;99.90;18.20;96863.00;;;;5108758;28;20701;-60
2021/07/03 06:17:45;;;;;;;4.57;3.70;;;18.00;99.90;18.60;96863.00;;;;5108091;28;20513;-62
2021/07/03 06:20:34;;;;;;;4.87;4.10;;;18.20;99.90;18.80;96867.00;;;;5108015;28;20589;-62
2021/07/03 06:23:23;;;;;;;4.60;4.00;;;18.50;99.90;19.20;96870.00;;;;5108681;28;20202;-62
2021/07/03 06:26:12;;;;;;;4.93;4.07;;;18.80;99.90;19.50;96860.00;;;;5108418;28;20210;-60
2021/07/03 06:29:02;;;;;;;5.47;4.07;;;19.00;99.90;19.70;96858.00;;;;5107832;28;20198;-61
2021/07/03 06:31:51;;;;;;;4.17;3.47;;;19.30;99.90;19.80;96857.00;;;;5107628;28;20229;-60
2021/07/03 06:34:40;;;;;;;3.53;3.17;;;19.60;99.90;20.10;96851.00;;;;5107885;28;20306;-62
2021/07/03 06:37:29;;;;;;;3.93;3.13;;;19.80;99.90;20.20;96853.00;;;;5109207;28;20210;-62
2021/07/03 06:40:18;;;;;;;4.53;3.20;;;20.00;99.90;20.40;96859.00;;;;5108322;28;20566;-62
2021/07/03 06:43:07;;;;;;;2.90;2.70;;;20.20;99.90;20.60;96854.00;;;;5108781;28;20230;-61
2021/07/03 06:45:57;;;;;;;3.43;3.10;;;20.40;99.90;20.70;96851.00;;;;5108606;28;20202;-60
2021/07/03 06:48:46;;;;;;;3.90;3.10;;;20.50;99.20;20.90;96855.00;;;;5108789;28;20698;-61
2021/07/03 06:51:35;;;;;;;4.13;3.40;;;20.70;97.10;21.00;96857.00;;;;5108420;28;20230;-62
2021/07/03 06:54:24;;;;;;;2.80;2.60;;;20.80;95.90;21.20;96852.00;;;;5108516;28;20222;-62
2021/07/03 06:57:13;;;;;;;3.17;2.87;;;21.00;94.70;21.30;96854.00;;;;5107075;28;20205;-61
2021/07/03 07:00:03;;;;;;;3.63;3.10;;;21.10;93.10;21.40;96852.00;;;;5107550;28;20198;-62
2021/07/03 07:02:53;;;;;;;4.73;2.90;;;21.30;91.20;21.60;96852.00;;;;5108532;28;20218;-61
2021/07/03 07:05:42;;;;;;;2.43;2.10;;;21.40;90.10;21.70;96847.00;;;;5107395;28;20206;-63
2021/07/03 07:08:31;;;;;;;3.27;2.93;;;21.50;85.90;21.90;96837.00;;;;5107097;28;20588;-63
2021/07/03 07:11:20;;;;;;;3.50;3.13;;;21.70;81.90;22.00;96842.00;;;;5095016;28;20384;-62
2021/07/03 07:14:09;;;;;;;2.87;2.60;;;21.80;79.60;22.10;96838.00;;;;5095412;28;20221;-62
2021/07/03 07:16:58;;;;;;;3.43;2.90;;;22.10;79.40;22.20;96833.00;;;;5106840;28;20203;-62
2021/07/03 07:19:48;;;;;;;3.17;2.57;;;22.10;75.20;22.20;96843.00;;;;5106996;28;20206;-61
2021/07/03 07:22:37;;;;;;;3.37;2.53;;;22.20;73.50;22.30;96833.00;;;;5096766;28;20234;-62
2021/07/03 07:25:26;;;;;;;3.27;2.67;;;22.20;73.10;22.50;96832.00;;;;5107048;28;20742;-62
2021/07/03 07:28:15;;;;;;;2.60;2.40;;;22.30;71.50;22.50;96834.00;;;;5106197;28;20209;-61
2021/07/03 07:31:04;;;;;;;3.93;2.40;;;22.40;70.70;22.60;96829.00;;;;5106039;28;20199;-62
2021/07/03 07:33:53;;;;;;;2.97;2.60;;;22.50;70.50;22.80;96824.00;;;;5093397;28;20202;-61
2021/07/03 07:36:44;;;;;;;3.73;2.87;;;22.60;70.40;23.10;96827.00;;;;5105544;28;20222;-62
2021/07/03 07:39:33;;;;;;;3.83;2.60;;;22.80;70.40;23.20;96821.00;;;;5107404;28;20558;-61
2021/07/03 07:42:22;;;;;;;4.03;2.30;;;23.00;67.80;23.30;96819.00;;;;5107393;28;20681;-61
2021/07/03 07:45:12;;;;;;;2.83;2.63;;;23.10;66.80;23.40;96817.00;;;;5093046;28;20203;-62
2021/07/03 07:48:06;;;;;;;4.83;2.67;;;23.20;65.90;23.40;96814.00;;;;5106604;28;20792;-64
2021/07/03 07:50:59;;;;;;;2.80;2.50;;;23.30;64.30;23.50;96810.00;;;;5106476;28;20199;-63
2021/07/03 07:53:49;;;;;;;2.97;2.63;;;23.40;63.10;23.60;96807.00;;;;5098062;28;20198;-62
2021/07/03 07:56:38;;;;;;;6.87;2.73;;;23.50;63.00;23.80;96812.00;;;;5092016;28;20223;-64
2021/07/03 07:59:27;;;;;;;3.63;2.77;;;23.60;62.40;23.90;96794.00;;;;5105618;28;20212;-62
2021/07/03 08:02:16;;;;;;;2.90;2.60;;;23.70;62.20;24.00;96795.00;;;;5106282;28;20723;-63
2021/07/03 08:05:06;;;;;;;2.97;2.47;;;23.90;62.20;24.10;96790.00;;;;5101976;28;20637;-63
2021/07/03 08:07:55;;;;;;;2.60;2.33;;;24.00;60.00;24.20;96795.00;;;;5106110;28;20771;-63
2021/07/03 08:10:45;;;;;;;2.87;2.57;;;24.10;60.50;24.40;96795.00;;;;5098935;28;20199;-62
2021/07/03 08:13:35;;;;;;;2.50;2.30;;;24.20;59.60;24.50;96787.00;;;;5101874;28;20586;-61
2021/07/03 08:16:23;;;;;;;3.33;2.30;;;24.30;59.40;24.60;96787.00;;;;5106880;28;20226;-61
2021/07/03 08:19:12;;;;;;;4.03;2.33;;;24.40;59.30;24.50;96784.00;;;;5104572;28;20210;-61
2021/07/03 08:22:01;;;;;;;3.30;2.53;;;24.60;58.90;24.70;96786.00;;;;5105468;28;20723;-61
2021/07/03 08:24:50;;;;;;;2.80;2.27;;;24.60;58.20;24.70;96788.00;;;;5105449;28;20203;-61
2021/07/03 08:27:41;;;;;;;2.87;2.57;;;24.70;57.80;24.90;96788.00;;;;5105853;28;20198;-61
2021/07/03 08:30:31;;;;;;;2.40;2.20;;;24.70;57.50;24.90;96778.00;;;;5105260;28;20694;-62
2021/07/03 08:33:21;;;;;;;3.50;2.37;;;24.80;56.80;24.70;96774.00;;;;5105004;28;20204;-61
2021/07/03 08:36:10;;;;;;;2.93;2.40;;;24.80;56.20;25.00;96786.00;;;;5103486;28;20708;-62
2021/07/03 08:38:58;;;;;;;2.67;2.47;;;24.90;56.80;25.20;96782.00;;;;5105064;28;20203;-62
2021/07/03 08:41:47;;;;;;;2.73;2.53;;;25.00;56.70;25.40;96778.00;;;;5103749;28;20595;-61
2021/07/03 08:44:37;;;;;;;3.10;2.50;;;25.10;56.80;25.50;96777.00;;;;5100301;28;20242;-61
2021/07/03 08:47:26;;;;;;;2.30;2.10;;;25.30;56.70;25.70;96772.00;;;;5103353;28;20203;-61
2021/07/03 08:50:18;;;;;;;2.47;2.27;;;25.40;56.30;25.80;96777.00;;;;5097517;28;20227;-60
2021/07/03 08:53:08;;;;;;;3.20;2.90;;;25.50;56.60;25.80;96779.00;;;;5096768;28;20241;-63
2021/07/03 08:55:58;;;;;;;3.93;2.60;;;25.70;55.90;25.80;96778.00;;;;5101680;28;20227;-62
2021/07/03 08:58:47;;;;;;;3.20;2.30;;;25.70;54.80;25.90;96774.00;;;;5103728;28;20220;-59
2021/07/03 09:01:53;;;;;;;2.80;2.37;;;25.80;54.60;26.10;96771.00;;;;5103835;28;20691;-62
2021/07/03 09:04:43;;;;;;;2.80;2.60;;;25.90;55.20;26.10;96773.00;;;;5104922;28;20265;-61
2021/07/03 09:07:34;;;;;;;2.57;2.30;;;25.90;54.10;26.10;96767.00;;;;5104984;28;20200;-62
2021/07/03 09:10:24;;;;;;;2.40;2.20;;;26.00;54.00;26.30;96771.00;;;;5099802;28;20206;-62
2021/07/03 09:13:13;;;;;;;2.33;2.13;;;26.10;53.70;26.30;96764.00;;;;5098707;28;20231;-61
2021/07/03 09:16:02;;;;;;;3.37;2.90;;;26.20;53.90;26.60;96766.00;;;;5105115;28;20224;-62
2021/07/03 09:18:57;;;;;;;3.40;2.63;;;26.30;53.50;26.80;96770.00;;;;5103404;28;20213;-61
2021/07/03 09:21:54;;;;;;;2.43;2.23;;;26.50;54.00;26.30;96762.00;;;;5086966;28;20218;-59
2021/07/03 09:24:43;;;;;;;4.70;2.40;;;26.60;52.90;27.10;96775.00;;;;5105171;28;20216;-60
2021/07/03 09:27:32;;;;;;;3.17;2.30;;;26.70;53.60;27.30;96779.00;;;;5104776;28;20205;-62
2021/07/03 09:30:22;;;;;;;2.30;2.10;;;26.80;52.20;27.50;96774.00;;;;5089913;28;20218;-61
2021/07/03 09:33:11;;;;;;;2.10;1.90;;;27.00;52.40;27.60;96778.00;;;;5104604;28;20231;-59
2021/07/03 09:36:04;;;;;;;2.20;2.00;;;27.20;52.10;27.70;96771.00;;;;5104230;28;20226;-61
2021/07/03 09:38:55;;;;;;;4.93;3.07;;;27.30;51.60;27.50;96762.00;;;;5104463;28;20211;-61
2021/07/03 09:41:45;;;;;;;2.83;2.53;;;27.50;51.70;27.10;96755.00;;;;5093005;28;20599;-61
2021/07/03 09:44:34;;;;;;;3.00;2.57;;;27.40;51.50;27.90;96755.00;;;;5103353;28;20192;-61
2021/07/03 09:47:23;;;;;;;2.70;2.43;;;27.50;52.40;27.00;96775.00;;;;5099058;28;20231;-62
2021/07/03 09:50:14;;;;;;;2.43;2.20;;;27.40;52.00;27.40;96751.00;;;;5103773;28;20205;-61
2021/07/03 09:53:05;;;;;;;4.93;2.60;;;27.40;51.70;27.90;96752.00;;;;5104856;28;20269;-61
2021/07/03 09:55:55;;;;;;;4.33;2.63;;;27.50;51.60;28.20;96731.00;;;;5105308;28;20224;-66
2021/07/03 09:58:45;;;;;;;2.90;2.60;;;27.70;52.20;28.40;96743.00;;;;5109831;28;20211;-62
2021/07/03 10:01:34;;;;;;;2.90;2.33;;;27.90;51.40;27.70;96745.00;;;;5096651;28;20701;-62
2021/07/03 10:04:23;;;;;;;4.37;2.77;;;27.80;51.40;28.30;96719.00;;;;5109314;28;20205;-60
2021/07/03 10:07:21;;;;;;;3.63;2.60;;;27.90;52.00;28.80;96720.00;;;;5110374;28;20574;-62
2021/07/03 10:10:16;;;;;;;5.53;2.57;;;28.10;52.30;28.50;96714.00;;;;5095807;28;20205;-61
2021/07/03 10:13:11;;;;;;;3.93;2.50;;;28.30;50.90;28.30;96706.00;;;;5101863;28;20221;-60
2021/07/03 10:16:05;;;;;;;5.90;2.90;;;28.40;50.00;29.20;96712.00;;;;5096918;27;20208;-62
2021/07/03 10:19:07;;;;;;;2.90;2.57;;;28.60;51.20;29.90;96713.00;;;;5107609;28;20209;-62
2021/07/03 10:22:11;;;;;;;2.83;2.37;;;28.90;50.80;29.90;96710.00;;;;5106502;28;20236;-60
2021/07/03 10:25:14;;;;;;;2.53;2.33;;;29.20;50.10;29.60;96710.00;;;;5108070;28;20211;-62
2021/07/03 10:28:07;;;;;;;4.80;2.50;;;29.40;49.20;29.40;96704.00;;;;5108792;28;20677;-61
2021/07/03 10:31:06;;;;;;;3.87;2.60;;;29.40;48.90;27.40;96697.00;;;;5108603;28;20220;-63
2021/07/03 10:33:56;;;;;;;3.47;2.57;;;29.00;47.60;27.50;96690.00;;;;5099546;28;20621;-61
2021/07/03 10:36:45;;;;;;;3.17;2.77;;;28.50;48.00;27.00;96742.00;;;;5105369;28;20225;-61
2021/07/03 10:39:35;;;;;;;3.47;2.50;;;28.00;48.70;26.40;96734.00;;;;5107516;28;20206;-62
2021/07/03 10:42:30;;;;;;;8.63;2.80;;;27.50;48.30;27.60;96735.00;;;;5109345;28;20222;-61
2021/07/03 10:45:23;;;;;;;2.87;2.37;;;27.40;50.10;26.30;96691.00;;;;5109111;28;20200;-60
2021/07/03 10:48:17;;;;;;;2.77;2.57;;;27.20;48.30;28.00;96672.00;;;;5108353;28;20208;-61
2021/07/03 10:51:13;;;;;;;4.27;2.80;;;27.40;49.50;27.60;96685.00;;;;5109108;28;20658;-61
2021/07/03 10:54:27;;;;;;;4.10;2.70;;;27.60;48.40;28.40;96700.00;;;;5108852;28;20202;-60
2021/07/03 10:57:26;;;;;;;3.60;2.60;;;27.90;49.60;27.90;96656.00;;;;5107557;28;20218;-60
2021/07/03 11:00:23;;;;;;;3.27;2.97;;;28.10;48.50;27.60;96656.00;;;;5108711;28;20581;-63
2021/07/03 11:03:14;;;;;;;4.13;2.60;;;27.90;49.70;29.40;96655.00;;;;5108780;28;20229;-62
2021/07/03 11:06:13;;;;;;;3.03;2.77;;;28.30;49.40;30.10;96656.00;;;;5109059;28;20213;-60
2021/07/03 11:09:02;;;;;;;3.60;1.77;;;28.90;49.10;30.50;96660.00;;;;5102991;28;20682;-61
2021/07/03 11:11:51;;;;;;;3.87;2.40;;;29.30;49.50;30.40;96667.00;;;;5105731;28;20575;-60
2021/07/03 11:14:51;;;;;;;3.53;2.70;;;29.70;49.50;30.10;96649.00;;;;5107446;28;20222;-61
2021/07/03 11:17:42;;;;;;;3.03;2.80;;;29.90;46.50;30.90;96640.00;;;;5106895;28;20229;-61
2021/07/03 11:20:34;;;;;;;3.03;2.53;;;30.10;47.40;30.40;96645.00;;;;5106716;28;20662;-59
2021/07/03 11:23:23;;;;;;;2.90;2.70;;;30.20;47.90;30.60;96633.00;;;;5107289;28;20208;-61
2021/07/03 11:26:14;;;;;;;3.00;2.80;;;30.30;47.10;31.30;96634.00;;;;5107293;28;20200;-60
2021/07/03 11:29:03;;;;;;;2.72;2.53;;;30.60;47.80;31.90;96632.00;;;;5094086;28;20220;-61
2021/07/03 11:32:06;;;;;;;4.38;3.00;;;30.80;47.90;30.80;96685.00;;;;5106953;28;20593;-60
2021/07/03 11:34:59;;;;;;;2.90;2.35;;;30.80;46.80;31.80;96619.00;;;;5104274;28;20198;-62
2021/07/03 11:37:49;;;;;;;2.53;2.22;;;30.90;47.30;32.10;96691.00;;;;5105895;28;20229;-60
2021/07/03 11:40:40;;;;;;;4.47;2.92;;;31.30;46.50;32.00;96657.00;;;;5095476;28;20209;-61
2021/07/03 11:43:30;;;;;;;3.30;2.55;;;31.20;47.00;31.20;96687.00;;;;5104690;28;20205;-62
2021/07/03 11:46:20;;;;;;;3.20;2.90;;;31.20;46.80;29.50;96625.00;;;;5105732;28;20206;-61
2021/07/03 11:49:10;;;;;;;2.80;2.53;;;30.80;44.60;30.90;96624.00;;;;5104873;28;20200;-62
2021/07/03 11:52:03;;;;;;;2.75;2.30;;;30.80;44.90;30.20;96611.00;;;;5094759;28;20226;-61
2021/07/03 11:55:03;;;;;;;3.00;2.80;;;30.40;46.00;30.00;96643.00;;;;5106989;28;20207;-60
2021/07/03 11:57:53;;;;;;;2.72;2.47;;;30.20;46.70;29.80;96605.00;;;;5105004;28;20227;-60
2021/07/03 12:00:48;;;;;;;5.72;2.47;;;30.20;46.20;30.60;96603.00;;;;5104472;28;20196;-62
2021/07/03 12:03:39;;;;;;;3.17;2.88;;;30.20;46.30;28.40;96592.00;;;;5105786;28;20203;-61
2021/07/03 12:06:28;;;;;;;3.22;2.83;;;30.00;44.70;28.90;96611.00;;;;5106686;28;20204;-64
2021/07/03 12:09:18;;;;;;;2.88;2.45;;;29.60;45.00;29.40;96595.00;;;;5106463;28;20214;-62
2021/07/03 12:12:08;;;;;;;3.28;2.97;;;29.60;44.80;28.20;96583.00;;;;5093470;28;20635;-63
2021/07/03 12:15:08;;;;;;;3.00;2.80;;;29.20;45.00;29.40;96583.00;;;;5106146;28;20209;-64
2021/07/03 12:17:58;;;;;;;3.27;2.97;;;29.30;45.50;29.00;96589.00;;;;5104735;28;20220;-64
2021/07/03 12:20:47;;;;;;;3.10;2.80;;;29.10;45.80;28.90;96618.00;;;;5105121;28;20225;-61
2021/07/03 12:23:37;;;;;;;3.08;2.78;;;28.90;45.80;31.40;96569.00;;;;5104725;28;20225;-64
2021/07/03 12:26:30;;;;;;;2.72;2.53;;;29.50;47.10;31.60;96639.00;;;;5105692;28;20215;-63
2021/07/03 12:29:23;;;;;;;4.13;2.90;;;30.30;46.50;29.70;96666.00;;;;5104892;28;20209;-63
2021/07/03 12:32:13;;;;;;;4.38;2.78;;;30.20;46.20;29.40;96639.00;;;;5105813;28;20232;-63
2021/07/03 12:35:11;;;;;;;2.63;2.42;;;30.10;45.70;28.80;96582.00;;;;5106307;28;20203;-62
2021/07/03 12:38:01;;;;;;;2.80;2.55;;;29.90;45.90;28.20;96643.00;;;;5106136;28;20225;-63